Sarajevo, Bosnia and Herzegovina
Current Conditions -  °F | °C
As of 5:30 PM on Saturday 20 Dec 2014 (Local Time) from LQSA Reporting Station
Clear Clear  
Wind Chill:   Ceiling: Unl
Heat Index:   Visibility: 5mi
Dew Point:   Wind: 2mph
Humidity: 87%   Direction: NA
Pressure: 30.15"   Gusts: NA
Location:  43.85°N, 18.38°E
Report Text: LQSA 201530Z VRB02KT 8000 R12/1200U NSC 05/03 Q1021 NOSIG
Loading
Personal Weather Stations






























Interactive Weather Map New forecast layout! Learn more

10-Day Weather Forecast

Advertisements
Track Severe Weather on mobile